createdAt,value
2023-02-03T00:00:11.000Z,100423.19
2023-02-03T00:02:38.342Z,100420.69
2023-02-03T00:05:06.293Z,100419.00
2023-02-03T00:07:33.815Z,100434.97
2023-02-03T00:10:04.526Z,100439.66
2023-02-03T00:12:32.148Z,100440.94
2023-02-03T00:14:59.473Z,100441.84
2023-02-03T00:17:26.675Z,100442.66
2023-02-03T00:19:53.904Z,100450.84
2023-02-03T00:22:21.165Z,100446.44
2023-02-03T00:24:48.380Z,100455.66
2023-02-03T00:27:15.648Z,100459.53
2023-02-03T00:29:42.883Z,100459.72
2023-02-03T00:32:10.207Z,100461.72
2023-02-03T00:34:41.003Z,100461.81
2023-02-03T00:37:08.312Z,100460.53
2023-02-03T00:39:39.071Z,100456.25
2023-02-03T00:42:06.775Z,100451.44
2023-02-03T00:44:34.085Z,100462.41
2023-02-03T00:47:01.546Z,100465.19
2023-02-03T00:49:28.865Z,100467.69
2023-02-03T00:51:56.088Z,100465.19
2023-02-03T00:54:23.384Z,100475.72
2023-02-03T00:56:50.572Z,100477.91
2023-02-03T00:59:17.973Z,100475.47
2023-02-03T01:01:45.399Z,100477.56
2023-02-03T01:04:12.892Z,100477.94
2023-02-03T01:06:41.697Z,100477.66
2023-02-03T01:09:09.094Z,100479.66
2023-02-03T01:11:36.375Z,100477.31
2023-02-03T01:14:03.857Z,100476.94
2023-02-03T01:16:31.722Z,100479.84
2023-02-03T01:18:59.047Z,100480.63
2023-02-03T01:21:26.765Z,100482.22
2023-02-03T01:23:54.844Z,100484.13
2023-02-03T01:26:24.102Z,100481.66
2023-02-03T01:28:57.198Z,100480.25
2023-02-03T01:31:28.475Z,100477.09
2023-02-03T01:33:56.401Z,100474.59
2023-02-03T01:36:26.093Z,100472.53
2023-02-03T01:38:53.878Z,100468.59
2023-02-03T01:41:25.241Z,100475.19
2023-02-03T01:43:55.328Z,100473.25
2023-02-03T01:46:34.324Z,100477.81
2023-02-03T01:49:10.963Z,100463.03
2023-02-03T01:51:41.631Z,100468.34
2023-02-03T01:54:12.885Z,100465.44
2023-02-03T01:56:44.175Z,100462.09
2023-02-03T01:59:12.175Z,100457.34
2023-02-03T02:01:39.998Z,100464.94
2023-02-03T02:04:08.752Z,100473.72
2023-02-03T02:06:36.794Z,100477.81
2023-02-03T02:09:04.692Z,100480.72
2023-02-03T02:11:31.976Z,100478.34
2023-02-03T02:14:02.092Z,100489.91
2023-02-03T02:16:49.994Z,100485.53
2023-02-03T02:19:35.621Z,100484.00
2023-02-03T02:22:18.093Z,100486.56
2023-02-03T02:25:06.625Z,100480.16
2023-02-03T02:27:52.412Z,100481.94
2023-02-03T02:30:50.826Z,100487.75
2023-02-03T02:33:26.148Z,100488.94
2023-02-03T02:36:27.684Z,100495.66
2023-02-03T02:39:09.923Z,100496.34
2023-02-03T02:42:01.644Z,100498.31
2023-02-03T02:44:35.164Z,100501.09
2023-02-03T02:47:10.838Z,100504.47
2023-02-03T02:49:45.136Z,100506.25
2023-02-03T02:52:14.634Z,100509.69
2023-02-03T02:54:47.438Z,100507.78
2023-02-03T02:57:18.553Z,100511.84
2023-02-03T02:59:47.222Z,100524.13
2023-02-03T03:02:14.688Z,100521.25
2023-02-03T03:04:45.698Z,100520.09
2023-02-03T03:07:18.263Z,100534.56
2023-02-03T03:09:57.314Z,100524.63
2023-02-03T03:12:34.704Z,100532.78
2023-02-03T03:15:10.690Z,100538.75
2023-02-03T03:17:47.696Z,100538.53
2023-02-03T03:20:21.880Z,100544.97
2023-02-03T03:22:57.026Z,100543.78
2023-02-03T03:25:29.908Z,100550.19
2023-02-03T03:28:05.753Z,100553.97
2023-02-03T03:30:36.211Z,100566.31
2023-02-03T03:33:05.692Z,100557.25
2023-02-03T03:35:53.171Z,100567.84
2023-02-03T03:38:26.579Z,100580.34
2023-02-03T03:41:03.769Z,100578.22
2023-02-03T03:43:36.543Z,100579.78
2023-02-03T03:46:07.782Z,100572.34
2023-02-03T03:48:42.697Z,100578.66
2023-02-03T03:51:19.221Z,100582.34
2023-02-03T03:53:50.293Z,100583.44
2023-02-03T03:56:24.361Z,100591.81
2023-02-03T03:58:53.976Z,100588.81
2023-02-03T04:01:23.606Z,100586.84
2023-02-03T04:03:57.075Z,100592.75
2023-02-03T04:06:24.555Z,100592.53
2023-02-03T04:08:51.980Z,100602.72
2023-02-03T04:11:19.311Z,100603.91
2023-02-03T04:13:46.567Z,100606.50
2023-02-03T04:16:13.892Z,100611.53
2023-02-03T04:18:41.126Z,100607.66
2023-02-03T04:21:08.645Z,100617.84
2023-02-03T04:23:35.853Z,100619.34
2023-02-03T04:26:03.814Z,100624.69
2023-02-03T04:28:31.176Z,100621.19
2023-02-03T04:31:01.334Z,100613.44
2023-02-03T04:33:28.655Z,100621.13
2023-02-03T04:35:56.297Z,100629.75
2023-02-03T04:38:23.647Z,100623.97
2023-02-03T04:40:54.089Z,100636.97
2023-02-03T04:43:22.994Z,100632.53
2023-02-03T04:46:02.072Z,100625.91
2023-02-03T04:48:29.476Z,100632.75
2023-02-03T04:51:01.833Z,100631.47
2023-02-03T04:53:30.665Z,100629.66
2023-02-03T04:55:59.094Z,100632.91
2023-02-03T04:58:27.570Z,100631.16
2023-02-03T05:00:55.715Z,100640.78
2023-02-03T05:03:26.117Z,100648.88
2023-02-03T05:05:56.917Z,100658.88
2023-02-03T05:08:24.685Z,100661.66
2023-02-03T05:10:52.511Z,100660.59
2023-02-03T05:13:20.865Z,100670.78
2023-02-03T05:15:48.852Z,100664.34
2023-02-03T05:18:16.067Z,100673.97
2023-02-03T05:20:44.068Z,100672.28
2023-02-03T05:23:11.623Z,100674.47
2023-02-03T05:25:39.065Z,100682.56
2023-02-03T05:28:06.552Z,100696.91
2023-02-03T05:30:33.973Z,100692.06
2023-02-03T05:33:01.316Z,100704.25
2023-02-03T05:35:28.695Z,100698.69
2023-02-03T05:37:56.200Z,100700.50
2023-02-03T05:40:23.479Z,100704.41
2023-02-03T05:42:50.788Z,100710.88
2023-02-03T05:45:18.013Z,100708.44
2023-02-03T05:47:45.313Z,100704.84
2023-02-03T05:50:12.684Z,100710.41
2023-02-03T05:52:42.488Z,100715.88
2023-02-03T05:55:09.855Z,100713.59
2023-02-03T05:57:37.196Z,100711.44
2023-02-03T06:00:05.465Z,100715.50
2023-02-03T06:02:36.092Z,100713.59
2023-02-03T06:05:03.493Z,100706.34
2023-02-03T06:07:30.717Z,100712.88
2023-02-03T06:09:58.207Z,100711.69
2023-02-03T06:12:28.161Z,100708.91
2023-02-03T06:14:55.611Z,100710.16
2023-02-03T06:17:23.309Z,100719.63
2023-02-03T06:19:50.644Z,100732.03
2023-02-03T06:22:17.881Z,100727.88
2023-02-03T06:24:45.290Z,100740.59
2023-02-03T06:27:12.933Z,100745.34
2023-02-03T06:29:40.855Z,100734.84
2023-02-03T06:32:09.011Z,100751.94
2023-02-03T06:34:36.697Z,100764.69
2023-02-03T06:37:04.439Z,100766.16
2023-02-03T06:39:31.670Z,100760.28
2023-02-03T06:41:59.080Z,100768.16
2023-02-03T06:44:26.470Z,100759.16
2023-02-03T06:46:54.067Z,100767.78
2023-02-03T06:49:21.812Z,100764.75
2023-02-03T06:51:49.145Z,100781.13
2023-02-03T06:54:16.508Z,100774.03
2023-02-03T06:56:44.312Z,100773.03
2023-02-03T06:59:11.588Z,100788.38
2023-02-03T07:01:41.722Z,100792.50
2023-02-03T07:04:08.991Z,100792.41
2023-02-03T07:06:36.357Z,100793.88
2023-02-03T07:09:07.034Z,100792.47
2023-02-03T07:11:34.578Z,100790.03
2023-02-03T07:14:05.697Z,100800.75
2023-02-03T07:16:33.075Z,100796.81
2023-02-03T07:19:00.319Z,100802.56
2023-02-03T07:21:30.091Z,100804.19
2023-02-03T07:23:57.466Z,100801.47
2023-02-03T07:26:27.727Z,100810.59
2023-02-03T07:28:55.847Z,100825.19
2023-02-03T07:31:29.185Z,100820.81
2023-02-03T07:33:56.764Z,100823.91
2023-02-03T07:36:24.080Z,100822.41
2023-02-03T07:38:51.455Z,100819.47
2023-02-03T07:41:18.840Z,100825.69
2023-02-03T07:43:46.262Z,100824.78
2023-02-03T07:46:13.653Z,100822.47
2023-02-03T07:48:41.040Z,100826.41
2023-02-03T07:51:08.897Z,100826.03
2023-02-03T07:53:39.193Z,100830.44
2023-02-03T07:56:06.967Z,100834.19
2023-02-03T07:58:34.293Z,100826.66
2023-02-03T08:01:09.657Z,100824.00
2023-02-03T08:03:37.100Z,100841.66
2023-02-03T08:06:04.508Z,100832.94
2023-02-03T08:08:31.793Z,100833.72
2023-02-03T08:11:01.760Z,100837.00
2023-02-03T08:13:29.134Z,100841.63
2023-02-03T08:15:58.104Z,100842.06
2023-02-03T08:18:30.232Z,100844.09
2023-02-03T08:20:59.012Z,100846.81
2023-02-03T08:23:32.566Z,100841.47
2023-02-03T08:26:00.182Z,100848.97
2023-02-03T08:28:27.727Z,100846.75
2023-02-03T08:30:58.435Z,100847.88
2023-02-03T08:33:25.741Z,100857.25
2023-02-03T08:35:53.033Z,100853.00
2023-02-03T08:38:20.325Z,100847.22
2023-02-03T08:40:47.657Z,100856.50
2023-02-03T08:43:18.419Z,100856.50
2023-02-03T08:45:45.783Z,100851.75
2023-02-03T08:48:13.902Z,100860.28
2023-02-03T08:50:47.128Z,100865.56
2023-02-03T08:53:17.495Z,100851.94
2023-02-03T08:55:45.045Z,100860.78
2023-02-03T08:58:15.335Z,100856.78
2023-02-03T09:00:43.185Z,100871.75
2023-02-03T09:03:17.617Z,100866.78
2023-02-03T09:05:48.159Z,100868.22
2023-02-03T09:08:15.905Z,100870.44
2023-02-03T09:10:45.691Z,100866.25
2023-02-03T09:13:13.044Z,100875.59
2023-02-03T09:15:45.793Z,100874.88
2023-02-03T09:20:49.742Z,100878.47
2023-02-03T09:23:19.929Z,100878.09
2023-02-03T09:25:49.554Z,100868.88
2023-02-03T09:28:17.021Z,100878.94
2023-02-03T09:30:44.469Z,100872.28
2023-02-03T09:33:11.890Z,100862.91
2023-02-03T09:35:39.261Z,100853.13
2023-02-03T09:38:07.006Z,100853.50
2023-02-03T09:40:35.963Z,100854.97
2023-02-03T09:43:13.811Z,100849.59
2023-02-03T09:45:41.477Z,100849.72
2023-02-03T09:48:22.760Z,100848.28
2023-02-03T09:50:53.888Z,100845.19
2023-02-03T09:53:25.427Z,100836.91
2023-02-03T09:55:53.211Z,100825.28
2023-02-03T09:58:22.182Z,100824.50
2023-02-03T10:01:06.507Z,100816.53
2023-02-03T10:03:54.139Z,100813.06
2023-02-03T10:06:46.864Z,100810.84
2023-02-03T10:09:19.553Z,100804.00
2023-02-03T10:11:56.538Z,100804.63
2023-02-03T10:14:59.771Z,100809.06
2023-02-03T10:17:38.966Z,100798.66
2023-02-03T10:20:08.965Z,100791.72
2023-02-03T10:22:54.736Z,100779.75
2023-02-03T10:25:46.154Z,100772.41
2023-02-03T10:28:19.123Z,100774.16
2023-02-03T10:30:58.258Z,100765.53
2023-02-03T10:33:29.968Z,100768.56
2023-02-03T10:36:23.098Z,100776.78
2023-02-03T10:39:00.640Z,100775.75
2023-02-03T10:41:32.331Z,100773.91
2023-02-03T10:44:03.850Z,100769.94
2023-02-03T10:46:33.571Z,100768.94
2023-02-03T10:49:04.225Z,100778.69
2023-02-03T10:51:39.785Z,100780.22
2023-02-03T10:54:36.154Z,100773.59
2023-02-03T10:57:11.406Z,100786.63
2023-02-03T10:59:43.436Z,100766.88
2023-02-03T11:02:27.153Z,100770.06
2023-02-03T11:05:20.324Z,100759.59
2023-02-03T11:07:54.370Z,100764.56
2023-02-03T11:10:44.321Z,100762.22
2023-02-03T11:13:18.522Z,100768.38
2023-02-03T11:15:55.046Z,100767.16
2023-02-03T11:18:26.974Z,100759.28
2023-02-03T11:20:54.306Z,100774.38
2023-02-03T11:23:23.527Z,100763.25
2023-02-03T11:25:51.236Z,100763.00
2023-02-03T11:28:18.861Z,100756.84
2023-02-03T11:30:46.462Z,100756.91
2023-02-03T11:33:19.903Z,100756.41
2023-02-03T11:36:00.079Z,100756.13
2023-02-03T11:38:35.355Z,100760.59
2023-02-03T11:41:03.162Z,100764.13
2023-02-03T11:43:34.585Z,100754.34
2023-02-03T11:46:05.206Z,100757.94
2023-02-03T11:48:38.653Z,100754.41
2023-02-03T11:51:53.389Z,100756.94
2023-02-03T11:54:35.185Z,100756.66
2023-02-03T11:57:30.278Z,100750.84
2023-02-03T12:00:19.837Z,100754.00
2023-02-03T12:03:06.324Z,100761.19
2023-02-03T12:05:46.455Z,100765.66
2023-02-03T12:08:45.217Z,100750.56
2023-02-03T12:11:15.690Z,100758.53
2023-02-03T12:14:21.445Z,100750.34
2023-02-03T12:17:27.107Z,100743.81
2023-02-03T12:20:33.477Z,100738.69
2023-02-03T12:23:17.862Z,100742.59
2023-02-03T12:26:19.597Z,100738.06
2023-02-03T12:29:00.573Z,100728.69
2023-02-03T12:31:50.313Z,100724.59
2023-02-03T12:34:46.763Z,100712.19
2023-02-03T12:37:30.678Z,100706.69
2023-02-03T12:40:15.466Z,100706.63
2023-02-03T12:43:21.479Z,100702.38
2023-02-03T12:46:08.333Z,100693.66
2023-02-03T12:48:43.759Z,100697.06
2023-02-03T12:51:28.030Z,100687.78
2023-02-03T12:54:01.975Z,100692.47
2023-02-03T12:56:41.821Z,100691.19
2023-02-03T12:59:23.489Z,100685.31
2023-02-03T13:02:01.486Z,100674.81
2023-02-03T13:04:43.116Z,100689.88
2023-02-03T13:07:36.702Z,100680.97
2023-02-03T13:10:26.600Z,100673.56
2023-02-03T13:12:57.714Z,100671.13
2023-02-03T13:15:32.775Z,100670.88
2023-02-03T13:18:06.156Z,100669.84
2023-02-03T13:20:35.953Z,100673.19
2023-02-03T13:23:12.424Z,100669.78
2023-02-03T13:26:04.353Z,100676.19
2023-02-03T13:29:00.823Z,100666.53
2023-02-03T13:31:40.649Z,100671.31
2023-02-03T13:34:36.853Z,100675.69
2023-02-03T13:37:55.141Z,100668.72
2023-02-03T13:40:25.430Z,100663.66
2023-02-03T13:43:17.404Z,100665.50
2023-02-03T13:45:56.437Z,100672.75
2023-02-03T13:48:29.993Z,100666.09
2023-02-03T13:51:15.761Z,100662.38
2023-02-03T13:53:45.828Z,100655.72
2023-02-03T13:56:38.981Z,100646.66
2023-02-03T13:59:15.828Z,100653.09
2023-02-03T14:01:44.016Z,100643.00
2023-02-03T14:04:47.627Z,100645.72
2023-02-03T14:07:40.915Z,100646.16
2023-02-03T14:10:34.473Z,100647.38
2023-02-03T14:13:21.694Z,100642.22
2023-02-03T14:16:35.645Z,100646.16
2023-02-03T14:19:05.687Z,100650.66
2023-02-03T14:21:49.175Z,100658.63
2023-02-03T14:24:30.611Z,100652.44
2023-02-03T14:27:00.139Z,100648.88
2023-02-03T14:29:32.846Z,100649.47
2023-02-03T14:32:04.659Z,100651.88
2023-02-03T14:34:48.863Z,100647.84
2023-02-03T14:37:30.327Z,100653.06
2023-02-03T14:40:29.383Z,100646.28
2023-02-03T14:43:13.236Z,100645.38
2023-02-03T14:45:46.546Z,100635.06
2023-02-03T14:48:36.392Z,100630.59
2023-02-03T14:51:31.145Z,100634.00
2023-02-03T14:54:13.591Z,100634.09
2023-02-03T14:57:12.751Z,100627.28
2023-02-03T14:59:58.013Z,100623.91
2023-02-03T15:02:37.614Z,100618.50
2023-02-03T15:05:14.319Z,100621.31
2023-02-03T15:07:45.964Z,100608.69
2023-02-03T15:10:17.735Z,100612.59
2023-02-03T15:12:51.314Z,100615.72
2023-02-03T15:15:30.652Z,100610.56
2023-02-03T15:18:19.442Z,100613.50
2023-02-03T15:20:47.828Z,100612.03
2023-02-03T15:23:27.399Z,100607.06
2023-02-03T15:26:00.330Z,100609.50
2023-02-03T15:28:29.644Z,100608.94
2023-02-03T15:31:09.694Z,100604.13
2023-02-03T15:33:38.622Z,100596.50
2023-02-03T15:36:12.944Z,100597.13
2023-02-03T15:38:44.764Z,100587.59
2023-02-03T15:41:24.621Z,100578.72
2023-02-03T15:43:58.533Z,100579.50
2023-02-03T15:46:29.263Z,100579.16
2023-02-03T15:48:59.400Z,100575.09
2023-02-03T15:51:33.015Z,100570.81
2023-02-03T15:54:26.492Z,100570.81
2023-02-03T15:56:56.957Z,100567.84
2023-02-03T15:59:30.097Z,100566.16
2023-02-03T16:01:58.577Z,100564.09
2023-02-03T16:04:33.616Z,100555.06
2023-02-03T16:07:25.729Z,100557.03
2023-02-03T16:09:55.586Z,100546.78
2023-02-03T16:12:24.766Z,100551.34
2023-02-03T16:14:53.881Z,100543.09
2023-02-03T16:17:30.119Z,100530.03
2023-02-03T16:20:13.918Z,100523.06
2023-02-03T16:22:47.157Z,100521.81
2023-02-03T16:25:19.634Z,100518.00
2023-02-03T16:28:17.572Z,100518.97
2023-02-03T16:30:57.185Z,100517.78
2023-02-03T16:33:24.904Z,100517.16
2023-02-03T16:35:58.168Z,100507.53
2023-02-03T16:38:25.928Z,100509.34
2023-02-03T16:40:59.226Z,100507.72
2023-02-03T16:43:26.937Z,100505.06
2023-02-03T16:45:57.095Z,100507.56
2023-02-03T16:48:27.865Z,100499.38
2023-02-03T16:50:59.337Z,100488.91
2023-02-03T16:53:30.598Z,100480.09
2023-02-03T16:56:00.651Z,100478.41
2023-02-03T16:58:28.663Z,100473.16
2023-02-03T17:00:58.086Z,100466.88
2023-02-03T17:03:27.101Z,100459.84
2023-02-03T17:05:55.921Z,100448.84
2023-02-03T17:08:27.304Z,100453.78
2023-02-03T17:10:54.622Z,100447.63
2023-02-03T17:13:23.387Z,100451.22
2023-02-03T17:15:52.151Z,100447.94
2023-02-03T17:18:19.540Z,100436.13
2023-02-03T17:20:50.423Z,100430.75
2023-02-03T17:23:20.484Z,100425.31
2023-02-03T17:25:50.598Z,100428.97
2023-02-03T17:28:18.022Z,100434.44
2023-02-03T17:30:45.817Z,100437.44
2023-02-03T17:33:13.181Z,100431.47
2023-02-03T17:35:50.133Z,100430.47
2023-02-03T17:38:17.401Z,100433.31
2023-02-03T17:54:42.730Z,100413.28
2023-02-03T17:57:10.104Z,100405.84
2023-02-03T17:59:37.323Z,100403.97
2023-02-03T18:02:04.616Z,100407.88
2023-02-03T18:04:31.944Z,100400.16
2023-02-03T18:06:59.185Z,100401.72
2023-02-03T18:09:26.611Z,100399.06
2023-02-03T18:11:54.023Z,100399.66
2023-02-03T18:14:26.019Z,100394.00
2023-02-03T18:16:56.899Z,100392.88
2023-02-03T18:19:24.238Z,100382.28
2023-02-03T18:21:51.925Z,100378.94
2023-02-03T18:24:19.483Z,100373.19
2023-02-03T18:26:49.945Z,100372.66
2023-02-03T18:29:18.366Z,100364.16
2023-02-03T18:31:47.769Z,100357.22
2023-02-03T18:34:16.406Z,100352.63
2023-02-03T18:36:46.850Z,100354.81
2023-02-03T18:39:17.135Z,100346.19
2023-02-03T18:41:44.391Z,100336.50
2023-02-03T18:44:11.639Z,100335.69
2023-02-03T18:46:41.859Z,100333.53
2023-02-03T18:49:09.675Z,100340.03
2023-02-03T18:51:37.023Z,100331.06
2023-02-03T18:54:07.030Z,100322.44
2023-02-03T18:56:37.973Z,100319.81
2023-02-03T18:59:07.833Z,100317.72
2023-02-03T19:01:36.123Z,100311.16
2023-02-03T19:04:04.256Z,100304.28
2023-02-03T19:06:33.437Z,100292.19
2023-02-03T19:09:01.222Z,100289.44
2023-02-03T19:11:30.207Z,100274.34
2023-02-03T19:14:00.455Z,100272.03
2023-02-03T19:16:27.953Z,100262.38
2023-02-03T19:18:55.173Z,100262.72
2023-02-03T19:21:25.075Z,100260.75
2023-02-03T19:23:52.364Z,100249.25
2023-02-03T19:26:19.888Z,100248.09
2023-02-03T19:28:47.220Z,100254.53
2023-02-03T19:31:15.456Z,100253.16
2023-02-03T19:33:43.087Z,100251.34
2023-02-03T19:36:11.496Z,100249.25
2023-02-03T19:38:39.135Z,100239.13
2023-02-03T19:41:06.390Z,100243.63
2023-02-03T19:43:33.732Z,100238.22
2023-02-03T19:46:01.007Z,100235.69
2023-02-03T19:48:28.285Z,100231.63
2023-02-03T19:50:55.996Z,100234.53
2023-02-03T19:53:26.435Z,100227.03
2023-02-03T19:55:53.691Z,100227.03
2023-02-03T19:58:21.048Z,100227.84
2023-02-03T20:00:48.327Z,100232.44
2023-02-03T20:03:15.562Z,100241.41
2023-02-03T20:05:42.776Z,100236.50
2023-02-03T20:08:10.620Z,100226.94
2023-02-03T20:10:37.839Z,100223.81
2023-02-03T20:13:05.446Z,100218.88
2023-02-03T20:15:32.666Z,100213.81
2023-02-03T20:18:17.609Z,100215.53
2023-02-03T20:20:50.880Z,100218.19
2023-02-03T20:23:18.321Z,100208.53
2023-02-03T20:25:48.565Z,100216.13
2023-02-03T20:28:16.994Z,100207.56
2023-02-03T20:30:44.429Z,100212.66
2023-02-03T20:33:12.680Z,100204.59
2023-02-03T20:35:39.892Z,100200.78
2023-02-03T20:38:08.022Z,100185.47
2023-02-03T20:40:35.670Z,100195.13
2023-02-03T20:43:15.518Z,100183.84
2023-02-03T20:45:43.271Z,100173.94
2023-02-03T20:48:12.561Z,100176.56
2023-02-03T20:50:42.774Z,100176.41
2023-02-03T20:53:15.501Z,100164.25
2023-02-03T20:55:43.371Z,100170.66
2023-02-03T20:58:17.483Z,100164.41
2023-02-03T21:00:45.269Z,100165.69
2023-02-03T21:03:14.764Z,100170.38
2023-02-03T21:05:43.912Z,100163.16
2023-02-03T21:08:16.334Z,100157.75
2023-02-03T21:10:44.989Z,100150.19
2023-02-03T21:13:24.351Z,100158.63
2023-02-03T21:15:54.154Z,100147.25
2023-02-03T21:18:37.012Z,100137.69
2023-02-03T21:21:05.284Z,100135.06
2023-02-03T21:23:40.579Z,100131.94
2023-02-03T21:26:18.487Z,100130.47
2023-02-03T21:28:48.792Z,100123.66
2023-02-03T21:31:22.060Z,100117.41
2023-02-03T21:33:49.605Z,100106.50
2023-02-03T21:36:18.977Z,100107.63
2023-02-03T21:38:50.076Z,100101.34
2023-02-03T21:41:19.809Z,100098.47
2023-02-03T21:43:51.180Z,100094.03
2023-02-03T21:46:31.703Z,100082.34
2023-02-03T21:49:00.381Z,100085.06
2023-02-03T21:51:33.011Z,100081.06
2023-02-03T21:54:03.081Z,100076.81
2023-02-03T21:56:42.063Z,100083.88
2023-02-03T21:59:18.079Z,100081.91
2023-02-03T22:01:49.342Z,100076.75
2023-02-03T22:04:16.638Z,100067.81
2023-02-03T22:06:45.914Z,100064.72
2023-02-03T22:09:15.996Z,100068.84
2023-02-03T22:11:43.635Z,100062.09
2023-02-03T22:14:12.599Z,100058.63
2023-02-03T22:16:42.779Z,100049.75
2023-02-03T22:19:10.724Z,100048.19
2023-02-03T22:21:37.915Z,100038.25
2023-02-03T22:24:05.900Z,100030.78
2023-02-03T22:26:33.370Z,100024.59
2023-02-03T22:29:00.628Z,100019.34
2023-02-03T22:31:28.488Z,100018.78
2023-02-03T22:33:55.775Z,100017.00
2023-02-03T22:36:23.168Z,100010.28
2023-02-03T22:38:50.429Z,99997.47
2023-02-03T22:41:17.743Z,99988.06
2023-02-03T22:43:45.311Z,99966.53
2023-02-03T22:46:12.557Z,99970.88
2023-02-03T22:48:39.864Z,99964.19
2023-02-03T22:51:07.156Z,99963.22
2023-02-03T22:53:34.561Z,99961.69
2023-02-03T22:56:01.973Z,99945.66
2023-02-03T22:58:29.403Z,99937.69
2023-02-03T23:00:56.792Z,99938.50
2023-02-03T23:03:27.275Z,99943.81
2023-02-03T23:05:54.651Z,99937.63
2023-02-03T23:08:21.931Z,99924.22
2023-02-03T23:10:55.355Z,99919.56
2023-02-03T23:13:23.216Z,99917.41
2023-02-03T23:15:51.110Z,99909.91
2023-02-03T23:18:21.712Z,99904.84
2023-02-03T23:20:49.180Z,99901.66
2023-02-03T23:23:20.016Z,99894.94
2023-02-03T23:25:47.473Z,99877.00
2023-02-03T23:28:14.774Z,99869.78
2023-02-03T23:30:42.100Z,99870.09
2023-02-03T23:33:11.987Z,99863.69
2023-02-03T23:35:39.805Z,99856.38
2023-02-03T23:38:07.008Z,99847.72
2023-02-03T23:40:37.181Z,99848.88
2023-02-03T23:43:06.876Z,99843.69
2023-02-03T23:45:37.381Z,99846.63
2023-02-03T23:48:04.945Z,99847.34
2023-02-03T23:50:35.000Z,99843.38
2023-02-03T23:53:02.285Z,99846.34
2023-02-03T23:55:30.149Z,99842.84
2023-02-03T23:58:00.741Z,99850.00
